createdAt,value
2018-11-12T00:00:21.642Z,152.72
2018-11-12T00:03:15.569Z,156.22
2018-11-12T00:06:13.206Z,145.92
2018-11-12T00:09:10.949Z,155.00
2018-11-12T00:12:04.427Z,156.07
2018-11-12T00:14:58.616Z,150.00
2018-11-12T00:17:52.935Z,149.75
2018-11-12T00:20:46.886Z,158.18
2018-11-12T00:23:43.708Z,148.15
2018-11-12T00:26:37.120Z,144.57
2018-11-12T00:29:30.649Z,148.43
2018-11-12T00:32:24.319Z,149.72
2018-11-12T00:35:18.088Z,145.92
2018-11-12T00:38:11.572Z,148.80
2018-11-12T00:41:05.485Z,143.10
2018-11-12T00:43:59.470Z,143.30
2018-11-12T00:46:53.180Z,148.85
2018-11-12T00:49:49.404Z,146.60
2018-11-12T00:52:43.407Z,144.72
2018-11-12T00:55:37.390Z,136.37
2018-11-12T00:58:30.920Z,141.25
2018-11-12T01:01:24.780Z,135.72
2018-11-12T01:04:18.771Z,140.82
2018-11-12T01:07:12.324Z,134.95
2018-11-12T01:10:06.201Z,131.95
2018-11-12T01:13:00.496Z,141.07
2018-11-12T01:15:54.185Z,135.40
2018-11-12T01:18:50.969Z,138.68
2018-11-12T01:21:44.967Z,131.80
2018-11-12T01:24:38.789Z,128.32
2018-11-12T01:27:32.427Z,135.00
2018-11-12T01:30:26.333Z,136.85
2018-11-12T01:33:20.216Z,131.07
2018-11-12T01:36:14.035Z,132.20
2018-11-12T01:39:10.066Z,124.65
2018-11-12T01:42:04.132Z,126.12
2018-11-12T01:44:57.817Z,126.62
2018-11-12T01:47:55.586Z,123.78
2018-11-12T01:50:49.262Z,122.85
2018-11-12T01:53:43.170Z,120.82
2018-11-12T01:56:36.886Z,129.18
2018-11-12T01:59:31.263Z,121.05
2018-11-12T02:02:24.929Z,121.77
2018-11-12T02:05:18.754Z,119.28
2018-11-12T02:08:13.119Z,121.42
2018-11-12T02:11:06.729Z,121.28
2018-11-12T02:14:00.429Z,119.72
2018-11-12T02:16:54.165Z,117.20
2018-11-12T02:19:47.819Z,118.53
2018-11-12T02:22:41.937Z,114.40
2018-11-12T02:25:35.835Z,119.15
2018-11-12T02:28:29.157Z,118.37
2018-11-12T02:31:22.537Z,111.77
2018-11-12T02:34:16.196Z,107.00
2018-11-12T02:37:09.692Z,116.73
2018-11-12T02:40:03.694Z,110.22
2018-11-12T02:42:57.487Z,112.17
2018-11-12T02:45:51.362Z,111.05
2018-11-12T02:48:44.868Z,110.40
2018-11-12T02:51:38.291Z,112.60
2018-11-12T02:54:32.082Z,109.45
2018-11-12T02:57:25.799Z,103.02
2018-11-12T03:00:26.199Z,107.27
2018-11-12T03:03:20.164Z,109.20
2018-11-12T03:06:13.657Z,108.90
2018-11-12T03:09:07.651Z,112.83
2018-11-12T03:12:01.175Z,102.25
2018-11-12T03:14:55.015Z,108.12
2018-11-12T03:17:49.338Z,100.55
2018-11-12T03:20:42.977Z,103.87
2018-11-12T03:23:40.015Z,101.35
2018-11-12T03:26:33.914Z,103.80
2018-11-12T03:29:30.725Z,100.25
2018-11-12T03:32:21.349Z,112.00
2018-11-12T03:35:16.024Z,103.12
2018-11-12T03:38:09.833Z,102.22
2018-11-12T03:41:04.338Z,108.22
2018-11-12T03:43:58.015Z,109.20
2018-11-12T03:46:51.849Z,108.97
2018-11-12T03:49:45.869Z,102.27
2018-11-12T03:52:40.042Z,103.80
2018-11-12T03:55:33.579Z,102.45
2018-11-12T03:58:27.487Z,105.78
2018-11-12T04:01:21.263Z,106.35
2018-11-12T04:04:17.223Z,105.03
2018-11-12T04:07:11.427Z,104.27
2018-11-12T04:10:05.340Z,99.83
2018-11-12T04:12:59.126Z,102.60
2018-11-12T04:15:53.171Z,103.35
2018-11-12T04:18:48.073Z,103.10
2018-11-12T04:21:42.221Z,97.55
2018-11-12T04:24:36.217Z,100.80
2018-11-12T04:27:30.172Z,99.42
2018-11-12T04:30:24.038Z,102.32
2018-11-12T04:33:17.671Z,103.25
2018-11-12T04:36:11.392Z,106.47
2018-11-12T04:39:06.138Z,99.20
2018-11-12T04:42:00.056Z,119.10
2018-11-12T04:44:54.365Z,111.72
2018-11-12T04:47:49.547Z,110.40
2018-11-12T04:50:43.626Z,109.83
2018-11-12T04:53:37.641Z,110.28
2018-11-12T04:56:31.814Z,111.35
2018-11-12T04:59:25.961Z,108.92
2018-11-12T05:02:20.110Z,133.22
2018-11-12T05:05:25.006Z,122.30
2018-11-12T05:08:19.434Z,122.15
2018-11-12T05:11:14.003Z,121.33
2018-11-12T05:14:08.266Z,117.67
2018-11-12T05:17:10.958Z,112.77
2018-11-12T05:20:06.871Z,108.35
2018-11-12T05:23:03.885Z,111.62
2018-11-12T05:26:01.157Z,118.22
2018-11-12T05:28:57.244Z,111.12
2018-11-12T05:31:53.748Z,106.90
2018-11-12T05:35:10.082Z,113.65
2018-11-12T05:38:28.689Z,102.78
2018-11-12T05:41:24.550Z,101.60
2018-11-12T05:44:24.371Z,104.17
2018-11-12T05:47:38.248Z,104.92
2018-11-12T05:51:02.439Z,109.60
2018-11-12T05:53:55.593Z,119.35
2018-11-12T05:56:49.915Z,104.27
2018-11-12T05:59:43.927Z,106.67
2018-11-12T06:02:49.313Z,103.30
2018-11-12T06:05:38.146Z,112.40
2018-11-12T06:08:32.841Z,104.60
2018-11-12T06:11:35.318Z,102.15
2018-11-12T06:14:37.282Z,105.72
2018-11-12T06:17:33.116Z,99.95
2018-11-12T06:20:32.296Z,108.17
2018-11-12T06:23:26.517Z,105.37
2018-11-12T06:26:23.155Z,102.78
2018-11-12T06:29:17.220Z,97.42
2018-11-12T06:32:22.836Z,96.63
2018-11-12T06:35:21.895Z,95.67
2018-11-12T06:38:15.970Z,98.40
2018-11-12T06:41:10.385Z,94.00
2018-11-12T06:44:16.533Z,87.20
2018-11-12T06:47:14.573Z,84.75
2018-11-12T06:50:11.866Z,88.55
2018-11-12T06:53:41.792Z,79.75
2018-11-12T06:56:40.075Z,82.47
2018-11-12T06:59:33.578Z,83.75
2018-11-12T07:02:28.554Z,86.00
2018-11-12T07:05:26.274Z,75.10
2018-11-12T07:08:28.840Z,67.30
2018-11-12T07:11:52.732Z,74.30
2018-11-12T07:18:32.511Z,72.17
2018-11-12T07:21:31.152Z,69.12
2018-11-12T07:24:26.914Z,70.78
2018-11-12T07:27:20.970Z,70.75
2018-11-12T07:30:27.835Z,63.85
2018-11-12T07:33:28.446Z,73.17
2018-11-12T07:36:22.026Z,64.03
2018-11-12T07:39:15.630Z,65.12
2018-11-12T07:42:13.213Z,67.70
2018-11-12T07:45:11.506Z,73.92
2018-11-12T07:48:05.634Z,67.25
2018-11-12T07:50:59.204Z,71.00
2018-11-12T07:53:53.269Z,70.83
2018-11-12T07:56:55.646Z,69.00
2018-11-12T07:59:56.652Z,77.32
2018-11-12T08:02:51.573Z,70.95
2018-11-12T08:05:58.251Z,74.75
2018-11-12T08:09:03.141Z,66.33
2018-11-12T08:12:25.460Z,73.25
2018-11-12T08:15:40.604Z,71.00
2018-11-12T08:18:33.811Z,70.08
2018-11-12T08:21:38.494Z,73.05
2018-11-12T08:24:35.383Z,65.47
2018-11-12T08:27:32.523Z,75.10
2018-11-12T08:30:28.188Z,84.35
2018-11-12T08:33:25.040Z,75.42
2018-11-12T08:36:28.100Z,77.00
2018-11-12T08:39:35.028Z,79.47
2018-11-12T08:42:32.236Z,84.45
2018-11-12T08:45:26.393Z,83.20
2018-11-12T08:48:23.204Z,79.80
2018-11-12T08:51:30.746Z,77.90
2018-11-12T08:54:26.234Z,79.95
2018-11-12T08:57:21.541Z,76.90
2018-11-12T09:00:21.864Z,75.72
2018-11-12T09:03:16.525Z,71.80
2018-11-12T09:06:28.541Z,76.55
2018-11-12T09:09:27.984Z,68.70
2018-11-12T09:12:39.166Z,71.55
2018-11-12T09:15:53.111Z,71.53
2018-11-12T09:19:14.194Z,75.70
2018-11-12T09:22:35.186Z,72.00
2018-11-12T09:26:01.990Z,76.80
2018-11-12T09:29:27.218Z,81.05
2018-11-12T09:32:59.028Z,71.33
2018-11-12T09:36:17.269Z,66.10
2018-11-12T09:43:05.371Z,67.22
2018-11-12T09:46:18.255Z,68.17
2018-11-12T09:49:31.748Z,66.55
2018-11-12T09:52:36.326Z,70.95
2018-11-12T09:55:32.658Z,67.53
2018-11-12T09:58:26.814Z,68.22
2018-11-12T10:01:22.110Z,59.15
2018-11-12T10:04:39.932Z,64.87
2018-11-12T10:07:48.591Z,65.80
2018-11-12T10:11:01.345Z,67.87
2018-11-12T10:14:12.081Z,61.33
2018-11-12T10:17:29.565Z,58.70
2018-11-12T10:20:36.633Z,59.23
2018-11-12T10:23:42.737Z,65.92
2018-11-12T10:26:44.788Z,66.77
2018-11-12T10:29:56.816Z,54.85
2018-11-12T10:32:54.043Z,64.50
2018-11-12T10:35:51.903Z,59.90
2018-11-12T10:38:51.767Z,62.15
2018-11-12T10:41:48.863Z,56.83
2018-11-12T10:44:43.022Z,61.83
2018-11-12T10:47:37.813Z,61.10
2018-11-12T10:50:33.408Z,60.45
2018-11-12T10:53:27.439Z,60.23
2018-11-12T10:56:25.195Z,58.20
2018-11-12T10:59:19.660Z,58.23
2018-11-12T11:02:33.794Z,55.17
2018-11-12T11:05:28.299Z,67.40
2018-11-12T11:08:22.671Z,60.95
2018-11-12T11:11:17.122Z,62.65
2018-11-12T11:14:14.695Z,67.82
2018-11-12T11:17:17.822Z,66.00
2018-11-12T11:20:12.668Z,63.55
2018-11-12T11:23:19.527Z,68.70
2018-11-12T11:26:10.431Z,63.08
2018-11-12T11:29:06.460Z,70.28
2018-11-12T11:32:02.026Z,65.90
2018-11-12T11:34:57.366Z,69.37
2018-11-12T11:37:54.420Z,64.70
2018-11-12T11:40:50.288Z,68.12
2018-11-12T11:43:47.326Z,70.35
2018-11-12T11:46:44.977Z,59.80
2018-11-12T11:49:40.827Z,59.65
2018-11-12T11:52:35.294Z,63.63
2018-11-12T11:55:29.782Z,61.65
2018-11-12T11:58:24.452Z,70.65
2018-11-12T12:01:19.984Z,65.55
2018-11-12T12:04:14.801Z,67.62
2018-11-12T12:07:09.548Z,64.40
2018-11-12T12:10:05.647Z,66.90
2018-11-12T12:13:00.913Z,56.18
2018-11-12T12:15:56.246Z,68.55
2018-11-12T12:18:51.610Z,60.75
2018-11-12T12:21:46.431Z,76.42
2018-11-12T12:24:46.682Z,90.32
2018-11-12T12:27:40.759Z,100.05
2018-11-12T12:30:35.346Z,90.85
2018-11-12T12:33:30.398Z,96.25
2018-11-12T12:36:24.944Z,90.60
2018-11-12T12:39:26.863Z,105.27
2018-11-12T12:42:23.107Z,91.50
2018-11-12T12:45:19.609Z,97.15
2018-11-12T12:48:18.504Z,89.00
2018-11-12T12:51:18.014Z,83.62
2018-11-12T12:54:13.856Z,88.10
2018-11-12T12:57:07.509Z,91.67
2018-11-12T13:00:02.600Z,83.25
2018-11-12T13:02:58.023Z,93.45
2018-11-12T13:05:51.856Z,76.02
2018-11-12T13:08:46.009Z,87.37
2018-11-12T13:11:40.610Z,86.22
2018-11-12T13:14:41.652Z,82.55
2018-11-12T13:17:36.884Z,80.38
2018-11-12T13:20:33.708Z,81.45
2018-11-12T13:23:27.267Z,89.92
2018-11-12T13:26:21.229Z,87.65
2018-11-12T13:29:16.048Z,81.87
2018-11-12T13:32:10.246Z,78.97
2018-11-12T13:35:04.305Z,80.15
2018-11-12T13:37:58.339Z,84.30
2018-11-12T13:40:55.277Z,86.60
2018-11-12T13:43:49.718Z,92.50
2018-11-12T13:46:56.891Z,84.58
2018-11-12T13:49:50.389Z,81.78
2018-11-12T13:52:44.442Z,85.03
2018-11-12T13:55:38.411Z,86.90
2018-11-12T13:58:32.282Z,86.72
2018-11-12T14:01:26.214Z,81.28
2018-11-12T14:07:32.429Z,92.22
2018-11-12T14:10:28.610Z,86.95
2018-11-12T14:13:23.494Z,80.35
2018-11-12T14:16:17.025Z,75.25
2018-11-12T14:19:11.219Z,71.53
2018-11-12T14:22:04.766Z,72.87
2018-11-12T14:24:58.092Z,70.12
2018-11-12T14:27:55.737Z,69.77
2018-11-12T14:30:49.747Z,68.37
2018-11-12T14:33:43.620Z,72.12
2018-11-12T14:36:37.502Z,68.90
2018-11-12T14:39:31.487Z,70.17
2018-11-12T14:42:25.252Z,70.65
2018-11-12T14:45:20.579Z,72.67
2018-11-12T14:48:20.129Z,71.17
2018-11-12T14:51:11.158Z,68.35
2018-11-12T14:54:04.748Z,69.07
2018-11-12T14:56:58.630Z,69.10
2018-11-12T14:59:52.196Z,69.53
2018-11-12T15:02:45.955Z,64.17
2018-11-12T15:05:39.960Z,66.00
2018-11-12T15:08:33.830Z,61.25
2018-11-12T15:11:27.894Z,67.58
2018-11-12T15:14:21.937Z,63.17
2018-11-12T15:17:16.118Z,67.85
2018-11-12T15:20:14.228Z,67.22
2018-11-12T15:23:08.071Z,68.92
2018-11-12T15:26:02.149Z,67.60
2018-11-12T15:28:56.486Z,66.10
2018-11-12T15:31:50.906Z,67.50
2018-11-12T15:34:44.493Z,73.05
2018-11-12T15:37:38.577Z,65.45
2018-11-12T15:40:32.909Z,61.90
2018-11-12T15:43:29.282Z,65.80
2018-11-12T15:46:20.337Z,67.72
2018-11-12T15:49:14.143Z,67.70
2018-11-12T15:52:07.555Z,66.07
2018-11-12T15:55:01.348Z,67.60
2018-11-12T15:57:55.495Z,67.80
2018-11-12T16:00:49.208Z,61.65
2018-11-12T16:03:43.871Z,65.90
2018-11-12T16:06:37.292Z,68.30
2018-11-12T16:09:30.717Z,62.10
2018-11-12T16:12:24.757Z,74.42
2018-11-12T16:15:20.015Z,68.95
2018-11-12T16:18:15.999Z,64.25
2018-11-12T16:21:09.324Z,67.50
2018-11-12T16:24:03.260Z,66.25
2018-11-12T16:26:56.600Z,65.97
2018-11-12T16:29:52.219Z,65.92
2018-11-12T16:32:46.512Z,61.30
2018-11-12T16:35:39.937Z,65.52
2018-11-12T16:38:38.441Z,62.17
2018-11-12T16:41:32.271Z,66.00
2018-11-12T16:44:26.288Z,60.35
2018-11-12T16:47:20.175Z,67.85
2018-11-12T16:50:16.618Z,70.87
2018-11-12T16:53:10.023Z,68.05
2018-11-12T16:56:03.552Z,73.07
2018-11-12T16:58:57.386Z,72.10
2018-11-12T17:01:53.227Z,67.35
2018-11-12T17:04:47.134Z,74.67
2018-11-12T17:07:40.819Z,66.53
2018-11-12T17:10:34.478Z,66.82
2018-11-12T17:13:28.344Z,71.15
2018-11-12T17:16:23.268Z,74.22
2018-11-12T17:19:18.321Z,71.70
2018-11-12T17:22:11.988Z,66.75
2018-11-12T17:25:08.441Z,71.87
2018-11-12T17:28:02.040Z,75.03
2018-11-12T17:30:56.078Z,70.78
2018-11-12T17:33:49.813Z,71.97
2018-11-12T17:36:46.153Z,70.10
2018-11-12T17:39:39.665Z,74.75
2018-11-12T17:42:33.373Z,69.10
2018-11-12T17:45:30.794Z,74.32
2018-11-12T17:48:24.557Z,75.40
2018-11-12T17:51:18.300Z,79.35
2018-11-12T17:54:11.930Z,79.62
2018-11-12T17:57:06.119Z,70.22
2018-11-12T18:00:00.409Z,75.10
2018-11-12T18:03:03.717Z,73.50
2018-11-12T18:05:57.672Z,71.70
2018-11-12T18:08:51.459Z,76.28
2018-11-12T18:11:45.141Z,74.72
2018-11-12T18:14:38.977Z,82.78
2018-11-12T18:17:33.061Z,78.25
2018-11-12T18:20:29.103Z,76.17
2018-11-12T18:23:23.564Z,71.33
2018-11-12T18:26:17.339Z,72.15
2018-11-12T18:29:10.996Z,72.50
2018-11-12T18:32:04.777Z,75.32
2018-11-12T18:34:58.550Z,77.42
2018-11-12T18:37:52.647Z,79.45
2018-11-12T18:40:46.464Z,79.35
2018-11-12T18:43:40.796Z,73.50
2018-11-12T18:46:37.405Z,71.77
2018-11-12T18:49:31.225Z,72.40
2018-11-12T18:52:25.561Z,74.67
2018-11-12T18:55:19.529Z,78.70
2018-11-12T18:58:13.152Z,80.12
2018-11-12T19:01:07.064Z,78.55
2018-11-12T19:04:00.901Z,80.05
2018-11-12T19:06:55.012Z,76.15
2018-11-12T19:09:48.823Z,77.40
2018-11-12T19:12:45.195Z,67.47
2018-11-12T19:15:40.290Z,71.35
2018-11-12T19:18:33.887Z,76.00
2018-11-12T19:21:28.054Z,74.85
2018-11-12T19:24:22.424Z,79.95
2018-11-12T19:27:16.931Z,82.02
2018-11-12T19:30:17.152Z,79.17
2018-11-12T19:33:10.838Z,80.65
2018-11-12T19:36:04.348Z,77.53
2018-11-12T19:38:57.987Z,80.65
2018-11-12T19:41:51.902Z,83.67
2018-11-12T19:44:45.563Z,79.55
2018-11-12T19:47:40.287Z,87.42
2018-11-12T19:50:34.382Z,79.58
2018-11-12T19:53:31.089Z,80.60
2018-11-12T19:56:24.651Z,84.15
2018-11-12T19:59:18.803Z,85.45
2018-11-12T20:02:15.508Z,87.22
2018-11-12T20:05:06.183Z,94.10
2018-11-12T20:07:59.898Z,89.32
2018-11-12T20:10:53.685Z,86.82
2018-11-12T20:13:50.561Z,100.97
2018-11-12T20:16:44.865Z,91.55
2018-11-12T20:19:38.632Z,97.60
2018-11-12T20:22:32.838Z,92.55
2018-11-12T20:25:26.279Z,92.85
2018-11-12T20:28:20.163Z,95.35
2018-11-12T20:31:14.331Z,106.32
2018-11-12T20:34:08.309Z,100.30
2018-11-12T20:37:01.629Z,99.25
2018-11-12T20:39:55.322Z,96.12
2018-11-12T20:42:49.947Z,101.75
2018-11-12T20:45:46.727Z,106.65
2018-11-12T20:48:40.590Z,99.75
2018-11-12T20:51:34.465Z,105.65
2018-11-12T20:54:28.517Z,101.45
2018-11-12T20:57:24.438Z,100.02
2018-11-12T21:00:25.812Z,105.50
2018-11-12T21:03:19.802Z,114.12
2018-11-12T21:06:13.462Z,104.70
2018-11-12T21:09:07.065Z,108.00
2018-11-12T21:12:00.247Z,109.48
2018-11-12T21:14:53.807Z,114.62
2018-11-12T21:17:47.695Z,114.35
2018-11-12T21:20:40.888Z,115.60
2018-11-12T21:23:34.421Z,114.10
2018-11-12T21:26:27.956Z,121.60
2018-11-12T21:29:21.394Z,120.17
2018-11-12T21:32:15.208Z,117.62
2018-11-12T21:35:08.964Z,125.45
2018-11-12T21:38:02.924Z,121.02
2018-11-12T21:40:56.679Z,127.65
2018-11-12T21:43:53.727Z,127.10
2018-11-12T21:46:46.973Z,139.20
2018-11-12T21:49:40.530Z,133.78
2018-11-12T21:52:34.010Z,142.62
2018-11-12T21:55:27.679Z,144.37
2018-11-12T21:58:21.214Z,140.85
2018-11-12T22:01:15.019Z,141.53
2018-11-12T22:04:08.956Z,148.30
2018-11-12T22:07:03.072Z,154.03
2018-11-12T22:09:56.963Z,156.57
2018-11-12T22:12:51.745Z,155.43
2018-11-12T22:15:45.618Z,157.32
2018-11-12T22:18:41.353Z,163.60
2018-11-12T22:21:34.972Z,158.75
2018-11-12T22:24:28.801Z,170.05
2018-11-12T22:27:22.262Z,186.73
2018-11-12T22:30:17.678Z,185.35
2018-11-12T22:33:11.030Z,174.90
2018-11-12T22:36:04.924Z,177.78
2018-11-12T22:38:58.628Z,180.37
2018-11-12T22:41:53.448Z,183.68
2018-11-12T22:44:47.055Z,186.52
2018-11-12T22:47:40.655Z,184.20
2018-11-12T22:50:34.695Z,189.65
2018-11-12T22:53:28.413Z,183.93
2018-11-12T22:56:22.085Z,181.87
2018-11-12T22:59:16.047Z,188.35
2018-11-12T23:02:09.566Z,181.72
2018-11-12T23:05:03.770Z,178.30
2018-11-12T23:07:57.715Z,179.57
2018-11-12T23:10:51.294Z,182.60
2018-11-12T23:13:44.677Z,174.53
2018-11-12T23:16:39.290Z,177.47
2018-11-12T23:19:34.670Z,175.03
2018-11-12T23:22:30.826Z,172.28
2018-11-12T23:25:24.280Z,167.22
2018-11-12T23:28:17.961Z,168.17
2018-11-12T23:31:11.258Z,170.28
2018-11-12T23:34:05.029Z,160.97
2018-11-12T23:36:58.738Z,169.80
2018-11-12T23:39:52.420Z,164.88
2018-11-12T23:42:46.429Z,163.80
2018-11-12T23:45:39.872Z,159.05
2018-11-12T23:48:36.979Z,154.68
2018-11-12T23:51:31.607Z,172.22
2018-11-12T23:54:25.738Z,158.70
2018-11-12T23:57:19.574Z,161.18
